createdAt,value
2022-08-26T00:01:44.303Z,17.17
2022-08-26T00:04:12.918Z,17.11
2022-08-26T00:06:42.692Z,17.05
2022-08-26T00:09:15.992Z,17.01
2022-08-26T00:11:44.382Z,17.00
2022-08-26T00:14:12.034Z,16.97
2022-08-26T00:16:41.075Z,16.93
2022-08-26T00:19:17.263Z,16.89
2022-08-26T00:21:44.399Z,16.86
2022-08-26T00:24:11.244Z,16.82
2022-08-26T00:26:39.439Z,16.80
2022-08-26T00:29:08.598Z,16.78
2022-08-26T00:31:36.734Z,16.76
2022-08-26T00:34:04.566Z,16.73
2022-08-26T00:36:32.085Z,16.67
2022-08-26T00:38:59.281Z,16.61
2022-08-26T00:41:26.524Z,16.57
2022-08-26T00:43:54.600Z,16.53
2022-08-26T00:46:27.013Z,16.50
2022-08-26T00:49:11.965Z,16.47
2022-08-26T00:51:53.739Z,16.46
2022-08-26T00:54:24.469Z,16.43
2022-08-26T00:57:01.049Z,16.41
2022-08-26T00:59:32.815Z,16.37
2022-08-26T01:02:02.774Z,16.33
2022-08-26T01:04:33.473Z,16.30
2022-08-26T01:07:01.331Z,16.28
2022-08-26T01:09:28.629Z,16.26
2022-08-26T01:11:59.799Z,16.26
2022-08-26T01:14:31.116Z,16.28
2022-08-26T01:16:59.013Z,16.28
2022-08-26T01:19:30.633Z,16.23
2022-08-26T01:22:02.591Z,16.26
2022-08-26T01:24:31.158Z,16.26
2022-08-26T01:27:03.604Z,16.26
2022-08-26T01:29:33.970Z,16.24
2022-08-26T01:32:05.129Z,16.27
2022-08-26T01:34:36.347Z,16.30
2022-08-26T01:37:11.694Z,16.29
2022-08-26T01:39:43.862Z,16.30
2022-08-26T01:42:14.978Z,16.24
2022-08-26T01:44:51.670Z,16.27
2022-08-26T01:47:21.670Z,16.27
2022-08-26T01:49:53.706Z,16.27
2022-08-26T01:52:27.642Z,16.27
2022-08-26T01:54:55.747Z,16.27
2022-08-26T01:57:23.907Z,16.25
2022-08-26T01:59:53.271Z,16.22
2022-08-26T02:02:20.755Z,16.12
2022-08-26T02:04:53.536Z,16.14
2022-08-26T02:07:21.799Z,16.09
2022-08-26T02:09:49.583Z,16.07
2022-08-26T02:12:19.754Z,16.05
2022-08-26T02:14:59.870Z,16.05
2022-08-26T02:17:48.356Z,16.05
2022-08-26T02:20:20.978Z,16.07
2022-08-26T02:22:48.446Z,16.08
2022-08-26T02:25:25.274Z,16.08
2022-08-26T02:27:52.671Z,16.04
2022-08-26T02:30:24.330Z,16.03
2022-08-26T02:32:53.254Z,16.02
2022-08-26T02:35:23.198Z,16.01
2022-08-26T02:37:52.131Z,16.01
2022-08-26T02:40:28.173Z,16.01
2022-08-26T02:42:55.965Z,16.02
2022-08-26T02:45:26.424Z,16.04
2022-08-26T02:47:54.185Z,16.02
2022-08-26T02:50:25.743Z,15.99
2022-08-26T02:52:53.094Z,15.95
2022-08-26T02:55:20.520Z,15.92
2022-08-26T02:57:47.502Z,15.89
2022-08-26T03:00:15.569Z,15.84
2022-08-26T03:02:42.509Z,15.81
2022-08-26T03:05:11.445Z,15.75
2022-08-26T03:07:38.722Z,15.70
2022-08-26T03:10:08.780Z,15.65
2022-08-26T03:12:35.794Z,15.60
2022-08-26T03:15:03.357Z,15.56
2022-08-26T03:17:44.451Z,15.49
2022-08-26T03:20:11.568Z,15.42
2022-08-26T03:22:40.671Z,15.34
2022-08-26T03:25:09.934Z,15.27
2022-08-26T03:27:36.863Z,15.24
2022-08-26T03:30:20.997Z,15.21
2022-08-26T03:32:47.828Z,15.18
2022-08-26T03:35:15.327Z,15.17
2022-08-26T03:37:42.586Z,15.14
2022-08-26T03:40:11.667Z,15.10
2022-08-26T03:42:40.799Z,15.06
2022-08-26T03:45:13.252Z,15.00
2022-08-26T03:47:42.867Z,14.96
2022-08-26T03:50:13.149Z,14.94
2022-08-26T03:52:43.694Z,14.93
2022-08-26T03:55:12.074Z,14.92
2022-08-26T03:57:39.418Z,14.93
2022-08-26T04:00:09.192Z,14.95
2022-08-26T04:02:36.349Z,14.98
2022-08-26T04:05:03.323Z,15.01
2022-08-26T04:07:32.088Z,15.01
2022-08-26T04:10:00.181Z,15.06
2022-08-26T04:12:27.187Z,15.05
2022-08-26T04:14:54.061Z,15.06
2022-08-26T04:17:25.900Z,15.04
2022-08-26T04:19:54.168Z,15.05
2022-08-26T04:22:24.859Z,15.08
2022-08-26T04:24:52.455Z,15.13
2022-08-26T04:27:19.649Z,15.17
2022-08-26T04:29:47.739Z,15.21
2022-08-26T04:32:15.660Z,15.23
2022-08-26T04:34:43.906Z,15.26
2022-08-26T04:37:13.331Z,15.29
2022-08-26T04:39:40.537Z,15.30
2022-08-26T04:42:07.416Z,15.39
2022-08-26T04:44:36.399Z,15.48
2022-08-26T04:47:03.423Z,15.58
2022-08-26T04:49:35.257Z,15.69
2022-08-26T04:52:03.931Z,15.83
2022-08-26T04:54:31.773Z,15.94
2022-08-26T04:56:59.309Z,16.10
2022-08-26T04:59:26.315Z,16.22
2022-08-26T05:01:57.568Z,16.34
2022-08-26T05:04:24.817Z,16.47
2022-08-26T05:06:53.419Z,16.60
2022-08-26T05:09:22.728Z,16.75
2022-08-26T05:11:52.223Z,16.88
2022-08-26T05:14:20.962Z,17.02
2022-08-26T05:16:48.071Z,17.16
2022-08-26T05:19:19.274Z,17.28
2022-08-26T05:21:48.524Z,17.41
2022-08-26T05:24:17.859Z,17.55
2022-08-26T05:26:44.950Z,17.70
2022-08-26T05:29:12.470Z,17.87
2022-08-26T05:31:39.292Z,18.03
2022-08-26T05:34:06.988Z,18.19
2022-08-26T05:36:36.992Z,18.33
2022-08-26T05:39:10.447Z,18.46
2022-08-26T05:41:41.243Z,18.59
2022-08-26T05:44:11.047Z,18.74
2022-08-26T05:46:39.717Z,18.93
2022-08-26T05:49:12.534Z,19.12
2022-08-26T05:51:41.841Z,19.32
2022-08-26T05:54:10.384Z,19.52
2022-08-26T05:56:39.041Z,19.71
2022-08-26T05:59:10.899Z,19.89
2022-08-26T06:01:43.682Z,20.08
2022-08-26T06:04:12.070Z,20.25
2022-08-26T06:06:41.502Z,20.45
2022-08-26T06:09:11.233Z,20.66
2022-08-26T06:11:39.651Z,20.89
2022-08-26T06:14:08.566Z,21.12
2022-08-26T06:16:38.752Z,21.35
2022-08-26T06:19:10.732Z,21.58
2022-08-26T06:21:41.290Z,21.80
2022-08-26T06:24:28.325Z,22.01
2022-08-26T06:26:57.792Z,22.23
2022-08-26T06:29:26.427Z,22.45
2022-08-26T06:31:56.125Z,22.67
2022-08-26T06:34:40.677Z,22.88
2022-08-26T06:37:09.018Z,23.12
2022-08-26T06:39:35.866Z,23.31
2022-08-26T06:42:08.711Z,23.51
2022-08-26T06:44:37.999Z,23.73
2022-08-26T06:47:07.913Z,23.93
2022-08-26T06:49:35.128Z,24.14
2022-08-26T06:52:02.559Z,24.36
2022-08-26T06:54:31.805Z,24.56
2022-08-26T06:56:59.424Z,24.72
2022-08-26T06:59:26.252Z,24.88
2022-08-26T07:01:54.797Z,25.06
2022-08-26T07:04:24.584Z,25.24
2022-08-26T07:06:54.270Z,25.44
2022-08-26T07:09:23.997Z,25.67
2022-08-26T07:11:52.050Z,25.89
2022-08-26T07:14:21.498Z,26.10
2022-08-26T07:16:50.654Z,26.30
2022-08-26T07:19:30.368Z,26.40
2022-08-26T07:22:02.252Z,26.51
2022-08-26T07:24:31.238Z,26.59
2022-08-26T07:27:01.664Z,26.75
2022-08-26T07:29:30.890Z,26.98
2022-08-26T07:31:59.452Z,27.25
2022-08-26T07:34:27.334Z,27.55
2022-08-26T07:36:55.273Z,27.79
2022-08-26T07:39:23.014Z,28.05
2022-08-26T07:41:50.394Z,28.31
2022-08-26T07:44:18.036Z,28.55
2022-08-26T07:46:51.286Z,28.77
2022-08-26T07:49:20.926Z,29.02
2022-08-26T07:51:48.856Z,29.31
2022-08-26T07:54:16.787Z,29.60
2022-08-26T07:56:44.670Z,29.88
2022-08-26T07:59:14.068Z,30.17
2022-08-26T08:01:44.733Z,30.38
2022-08-26T08:04:15.421Z,30.61
2022-08-26T08:06:43.860Z,30.91
2022-08-26T08:09:13.329Z,31.23
2022-08-26T08:11:41.471Z,31.54
2022-08-26T08:14:11.747Z,31.95
2022-08-26T08:16:46.128Z,32.42
2022-08-26T08:19:15.700Z,32.83
2022-08-26T08:21:44.067Z,33.17
2022-08-26T08:24:11.605Z,33.53
2022-08-26T08:26:39.361Z,34.01
2022-08-26T08:29:08.498Z,34.56
2022-08-26T08:31:56.845Z,35.05
2022-08-26T08:34:24.515Z,35.51
2022-08-26T08:36:53.485Z,35.94
2022-08-26T08:39:20.754Z,36.36
2022-08-26T08:42:20.487Z,36.79
2022-08-26T08:44:54.007Z,37.26
2022-08-26T08:47:39.396Z,37.66
2022-08-26T08:50:12.364Z,37.98
2022-08-26T08:52:41.446Z,38.12
2022-08-26T08:55:13.662Z,38.22
2022-08-26T08:57:42.091Z,38.32
2022-08-26T09:00:18.182Z,38.12
2022-08-26T09:02:53.109Z,38.09
2022-08-26T09:05:42.597Z,38.24
2022-08-26T09:08:19.727Z,38.46
2022-08-26T09:10:53.961Z,38.58
2022-08-26T09:13:24.898Z,38.62
2022-08-26T09:16:13.968Z,38.62
2022-08-26T09:19:00.636Z,38.67
2022-08-26T09:21:29.957Z,38.84
2022-08-26T09:23:57.656Z,39.04
2022-08-26T09:26:39.952Z,39.26
2022-08-26T09:31:52.387Z,39.35
2022-08-26T09:34:23.202Z,39.35
2022-08-26T09:36:53.741Z,39.32
2022-08-26T09:39:25.976Z,39.20
2022-08-26T09:42:25.692Z,38.98
2022-08-26T09:44:54.459Z,38.60
2022-08-26T09:47:39.067Z,38.19
2022-08-26T09:50:28.888Z,37.73
2022-08-26T09:53:09.901Z,37.36
2022-08-26T09:55:42.613Z,37.01
2022-08-26T09:58:14.728Z,36.72
2022-08-26T10:00:52.915Z,36.46
2022-08-26T10:03:33.007Z,36.19
2022-08-26T10:06:04.481Z,35.86
2022-08-26T10:08:34.494Z,35.55
2022-08-26T10:11:05.613Z,35.27
2022-08-26T10:13:41.125Z,34.97
2022-08-26T10:16:22.374Z,34.73
2022-08-26T10:18:59.906Z,34.44
2022-08-26T10:21:35.559Z,34.17
2022-08-26T10:24:04.532Z,33.98
2022-08-26T10:26:43.286Z,33.87
2022-08-26T10:29:19.994Z,33.74
2022-08-26T10:32:10.480Z,33.49
2022-08-26T10:34:40.846Z,33.30
2022-08-26T10:37:21.612Z,33.13
2022-08-26T10:39:58.685Z,32.97
2022-08-26T10:42:40.644Z,32.86
2022-08-26T10:45:15.304Z,32.73
2022-08-26T10:47:46.304Z,32.63
2022-08-26T10:50:15.089Z,32.61
2022-08-26T10:53:08.751Z,32.61
2022-08-26T10:55:54.950Z,32.66
2022-08-26T10:58:45.650Z,32.77
2022-08-26T11:01:50.847Z,32.77
2022-08-26T11:04:47.086Z,32.76
2022-08-26T11:07:33.257Z,32.77
2022-08-26T11:10:17.390Z,32.82
2022-08-26T11:12:49.291Z,32.82
2022-08-26T11:15:32.151Z,32.86
2022-08-26T11:18:04.408Z,32.85
2022-08-26T11:20:47.339Z,32.87
2022-08-26T11:23:23.224Z,32.93
2022-08-26T11:25:59.831Z,32.93
2022-08-26T11:28:44.031Z,32.99
2022-08-26T11:31:31.763Z,33.11
2022-08-26T11:34:07.235Z,33.19
2022-08-26T11:36:47.792Z,33.26
2022-08-26T11:39:18.492Z,33.33
2022-08-26T11:41:49.512Z,33.33
2022-08-26T11:44:24.845Z,33.44
2022-08-26T11:46:57.073Z,33.68
2022-08-26T11:49:25.023Z,33.96
2022-08-26T11:51:52.098Z,34.24
2022-08-26T11:54:35.353Z,34.54
2022-08-26T11:57:09.417Z,34.98
2022-08-26T11:59:41.396Z,35.35
2022-08-26T12:02:17.750Z,35.68
2022-08-26T12:04:49.902Z,36.07
2022-08-26T12:07:24.162Z,36.45
2022-08-26T12:09:56.552Z,36.80
2022-08-26T12:12:26.901Z,37.24
2022-08-26T12:15:10.724Z,37.54
2022-08-26T12:17:39.505Z,37.81
2022-08-26T12:20:19.244Z,37.80
2022-08-26T12:22:48.273Z,37.93
2022-08-26T12:25:23.980Z,38.20
2022-08-26T12:27:54.040Z,38.54
2022-08-26T12:30:26.205Z,38.68
2022-08-26T12:33:15.756Z,38.81
2022-08-26T12:35:54.304Z,38.90
2022-08-26T12:38:22.792Z,38.95
2022-08-26T12:40:50.425Z,39.00
2022-08-26T12:43:39.469Z,39.07
2022-08-26T12:46:09.140Z,39.11
2022-08-26T12:48:40.975Z,39.16
2022-08-26T12:51:16.488Z,39.32
2022-08-26T12:53:44.772Z,39.43
2022-08-26T12:56:38.871Z,39.37
2022-08-26T12:59:22.844Z,39.36
2022-08-26T13:01:50.358Z,39.23
2022-08-26T13:04:41.328Z,38.98
2022-08-26T13:07:25.087Z,38.96
2022-08-26T13:09:54.995Z,39.04
2022-08-26T13:12:24.654Z,39.11
2022-08-26T13:14:51.617Z,39.13
2022-08-26T13:17:18.468Z,39.26
2022-08-26T13:19:45.330Z,39.33
2022-08-26T13:22:13.864Z,39.32
2022-08-26T13:24:43.711Z,39.23
2022-08-26T13:27:13.213Z,39.17
2022-08-26T13:29:41.549Z,39.10
2022-08-26T13:32:09.306Z,38.98
2022-08-26T13:34:37.636Z,38.80
2022-08-26T13:37:05.315Z,38.80
2022-08-26T13:39:33.249Z,38.95
2022-08-26T13:42:00.313Z,38.99
2022-08-26T13:44:27.723Z,38.95
2022-08-26T13:46:54.853Z,39.07
2022-08-26T13:49:22.796Z,39.21
2022-08-26T13:51:49.896Z,39.14
2022-08-26T13:54:16.775Z,38.92
2022-08-26T13:56:43.759Z,38.79
2022-08-26T13:59:10.908Z,38.82
2022-08-26T14:01:40.264Z,38.88
2022-08-26T14:04:08.554Z,38.91
2022-08-26T14:06:35.893Z,39.05
2022-08-26T14:09:03.066Z,39.13
2022-08-26T14:11:30.334Z,39.21
2022-08-26T14:14:13.711Z,39.26
2022-08-26T14:16:59.023Z,39.12
2022-08-26T14:19:28.166Z,38.88
2022-08-26T14:21:55.057Z,38.69
2022-08-26T14:24:22.595Z,38.62
2022-08-26T14:26:49.433Z,38.48
2022-08-26T14:29:16.904Z,38.09
2022-08-26T14:31:44.428Z,37.58
2022-08-26T14:34:13.969Z,37.04
2022-08-26T14:36:40.901Z,36.52
2022-08-26T14:39:10.683Z,35.97
2022-08-26T14:41:44.932Z,35.47
2022-08-26T14:44:14.683Z,35.00
2022-08-26T14:46:49.041Z,34.60
2022-08-26T14:49:17.739Z,34.21
2022-08-26T14:51:45.068Z,33.84
2022-08-26T14:54:13.743Z,33.55
2022-08-26T14:57:01.163Z,33.28
2022-08-26T14:59:32.129Z,32.96
2022-08-26T15:02:00.650Z,32.70
2022-08-26T15:04:28.745Z,32.49
2022-08-26T15:06:58.907Z,32.29
2022-08-26T15:09:26.700Z,32.09
2022-08-26T15:11:53.620Z,31.90
2022-08-26T15:14:21.689Z,31.74
2022-08-26T15:16:50.322Z,31.61
2022-08-26T15:19:18.507Z,31.47
2022-08-26T15:21:47.540Z,31.30
2022-08-26T15:24:16.660Z,31.16
2022-08-26T15:26:44.937Z,31.04
2022-08-26T15:29:11.904Z,30.92
2022-08-26T15:31:39.184Z,30.80
2022-08-26T15:34:13.150Z,30.68
2022-08-26T15:36:45.769Z,30.55
2022-08-26T15:39:13.850Z,30.46
2022-08-26T15:41:41.209Z,30.36
2022-08-26T15:44:08.391Z,30.26
2022-08-26T15:46:36.406Z,30.14
2022-08-26T15:49:05.142Z,30.03
2022-08-26T15:51:35.820Z,29.93
2022-08-26T15:54:13.660Z,29.82
2022-08-26T15:56:40.630Z,29.73
2022-08-26T15:59:08.222Z,29.64
2022-08-26T16:01:35.731Z,29.55
2022-08-26T16:04:03.930Z,29.47
2022-08-26T16:06:33.929Z,29.38
2022-08-26T16:09:01.443Z,29.29
2022-08-26T16:11:28.731Z,29.19
2022-08-26T16:13:56.059Z,29.11
2022-08-26T16:16:23.426Z,29.01
2022-08-26T16:18:50.501Z,28.92
2022-08-26T16:21:20.183Z,28.82
2022-08-26T16:23:47.469Z,28.71
2022-08-26T16:26:17.756Z,28.62
2022-08-26T16:28:45.134Z,28.52
2022-08-26T16:31:12.234Z,28.43
2022-08-26T16:33:39.345Z,28.32
2022-08-26T16:36:08.417Z,28.22
2022-08-26T16:38:36.299Z,28.12
2022-08-26T16:41:04.432Z,28.02
2022-08-26T16:43:31.506Z,27.92
2022-08-26T16:45:58.700Z,27.81
2022-08-26T16:48:26.953Z,27.68
2022-08-26T16:50:55.752Z,27.54
2022-08-26T16:53:23.496Z,27.40
2022-08-26T16:55:51.387Z,27.25
2022-08-26T16:58:20.402Z,27.09
2022-08-26T17:00:49.114Z,26.91
2022-08-26T17:03:16.040Z,26.73
2022-08-26T17:05:42.928Z,26.56
2022-08-26T17:08:10.218Z,26.38
2022-08-26T17:10:37.796Z,26.20
2022-08-26T17:13:04.989Z,26.01
2022-08-26T17:15:32.043Z,25.83
2022-08-26T17:17:59.215Z,25.65
2022-08-26T17:20:26.775Z,25.45
2022-08-26T17:22:56.061Z,25.27
2022-08-26T17:25:28.064Z,25.06
2022-08-26T17:30:27.127Z,24.68
2022-08-26T17:32:56.983Z,24.53
2022-08-26T17:35:24.733Z,24.42
2022-08-26T17:37:52.891Z,24.30
2022-08-26T17:40:24.150Z,24.15
2022-08-26T17:42:51.945Z,24.01
2022-08-26T17:47:48.271Z,23.77
2022-08-26T17:50:17.135Z,23.63
2022-08-26T17:52:45.154Z,23.50
2022-08-26T17:55:15.150Z,23.39
2022-08-26T17:57:44.746Z,23.26
2022-08-26T18:00:23.593Z,23.12
2022-08-26T18:02:50.502Z,22.99
2022-08-26T18:05:17.926Z,22.86
2022-08-26T18:07:45.151Z,22.74
2022-08-26T18:10:15.572Z,22.62
2022-08-26T18:12:43.093Z,22.50
2022-08-26T18:15:11.658Z,22.35
2022-08-26T18:17:39.417Z,22.20
2022-08-26T18:20:09.683Z,22.04
2022-08-26T18:22:36.579Z,21.87
2022-08-26T18:25:05.415Z,21.72
2022-08-26T18:27:32.854Z,21.57
2022-08-26T18:30:00.306Z,21.45
2022-08-26T18:32:27.495Z,21.34
2022-08-26T18:34:54.474Z,21.24
2022-08-26T18:37:21.362Z,21.14
2022-08-26T18:39:48.778Z,21.03
2022-08-26T18:42:15.612Z,20.91
2022-08-26T18:44:42.632Z,20.79
2022-08-26T18:47:09.481Z,20.67
2022-08-26T18:49:36.695Z,20.54
2022-08-26T18:52:05.533Z,20.41
2022-08-26T18:54:32.684Z,20.29
2022-08-26T18:56:59.642Z,20.17
2022-08-26T18:59:29.688Z,20.08
2022-08-26T19:01:57.921Z,19.99
2022-08-26T19:04:26.060Z,19.90
2022-08-26T19:06:53.420Z,19.81
2022-08-26T19:09:21.098Z,19.73
2022-08-26T19:11:49.692Z,19.64
2022-08-26T19:14:17.478Z,19.56
2022-08-26T19:16:48.765Z,19.47
2022-08-26T19:19:16.235Z,19.38
2022-08-26T19:21:43.764Z,19.35
2022-08-26T19:24:17.544Z,19.33
2022-08-26T19:26:46.466Z,19.29
2022-08-26T19:29:13.816Z,19.24
2022-08-26T19:31:42.305Z,19.19
2022-08-26T19:34:11.321Z,19.14
2022-08-26T19:36:38.916Z,19.07
2022-08-26T19:39:09.995Z,19.03
2022-08-26T19:41:39.194Z,18.97
2022-08-26T19:44:11.534Z,18.92
2022-08-26T19:49:10.723Z,18.82
2022-08-26T19:51:37.795Z,18.77
2022-08-26T19:54:04.975Z,18.71
2022-08-26T19:56:31.880Z,18.63
2022-08-26T19:58:58.871Z,18.55
2022-08-26T20:01:25.818Z,18.46
2022-08-26T20:03:53.058Z,18.37
2022-08-26T20:06:20.910Z,18.28
2022-08-26T20:08:50.818Z,18.20
2022-08-26T20:11:20.765Z,18.13
2022-08-26T20:13:48.286Z,18.07
2022-08-26T20:16:16.253Z,18.01
2022-08-26T20:21:45.878Z,17.83
2022-08-26T20:24:16.231Z,17.76
2022-08-26T20:26:44.695Z,17.69
2022-08-26T20:29:15.610Z,17.62
2022-08-26T20:31:44.272Z,17.58
2022-08-26T20:34:13.574Z,17.55
2022-08-26T20:36:41.583Z,17.51
2022-08-26T20:39:10.589Z,17.46
2022-08-26T20:41:38.162Z,17.39
2022-08-26T20:44:05.927Z,17.35
2022-08-26T20:46:34.999Z,17.30
2022-08-26T20:49:02.496Z,17.25
2022-08-26T20:51:33.823Z,17.22
2022-08-26T20:54:01.653Z,17.19
2022-08-26T20:56:28.578Z,17.18
2022-08-26T20:58:59.423Z,17.14
2022-08-26T21:01:33.674Z,17.08
2022-08-26T21:04:03.655Z,17.05
2022-08-26T21:06:32.748Z,17.03
2022-08-26T21:09:01.566Z,17.03
2022-08-26T21:11:29.404Z,17.01
2022-08-26T21:14:06.805Z,17.00
2022-08-26T21:16:43.565Z,16.99
2022-08-26T21:19:13.920Z,16.95
2022-08-26T21:21:42.049Z,16.92
2022-08-26T21:24:09.574Z,16.90
2022-08-26T21:26:37.305Z,16.87
2022-08-26T21:29:06.806Z,16.85
2022-08-26T21:31:35.164Z,16.82
2022-08-26T21:34:02.121Z,16.79
2022-08-26T21:36:29.143Z,16.77
2022-08-26T21:38:58.069Z,16.73
2022-08-26T21:41:26.208Z,16.66
2022-08-26T21:43:56.018Z,16.61
2022-08-26T21:46:25.248Z,16.56
2022-08-26T21:48:57.193Z,16.53
2022-08-26T21:51:25.867Z,16.52
2022-08-26T21:53:53.100Z,16.51
2022-08-26T21:56:21.653Z,16.51
2022-08-26T21:58:48.709Z,16.50
2022-08-26T22:01:22.659Z,16.47
2022-08-26T22:03:52.345Z,16.44
2022-08-26T22:06:22.550Z,16.40
2022-08-26T22:08:50.169Z,16.38
2022-08-26T22:11:19.686Z,16.39
2022-08-26T22:13:48.907Z,16.37
2022-08-26T22:16:16.409Z,16.35
2022-08-26T22:18:46.037Z,16.32
2022-08-26T22:21:17.347Z,16.28
2022-08-26T22:23:46.092Z,16.23
2022-08-26T22:26:16.221Z,16.18
2022-08-26T22:28:58.531Z,16.12
2022-08-26T22:31:37.056Z,16.08
2022-08-26T22:34:09.405Z,16.07
2022-08-26T22:36:43.213Z,16.04
2022-08-26T22:39:13.756Z,16.00
2022-08-26T22:41:43.097Z,15.97
2022-08-26T22:44:11.833Z,15.92
2022-08-26T22:46:40.112Z,15.87
2022-08-26T22:49:09.721Z,15.87
2022-08-26T22:51:36.814Z,15.84
2022-08-26T22:54:04.920Z,15.81
2022-08-26T22:56:31.900Z,15.77
2022-08-26T22:58:58.744Z,15.76
2022-08-26T23:01:25.943Z,15.77
2022-08-26T23:03:53.694Z,15.74
2022-08-26T23:06:20.732Z,15.73
2022-08-26T23:08:47.877Z,15.71
2022-08-26T23:11:15.084Z,15.71
2022-08-26T23:13:42.582Z,15.75
2022-08-26T23:16:11.739Z,15.75
2022-08-26T23:18:40.896Z,15.75
2022-08-26T23:21:09.063Z,15.75
2022-08-26T23:23:36.614Z,15.72
2022-08-26T23:26:06.298Z,15.72
2022-08-26T23:28:34.619Z,15.73
2022-08-26T23:31:01.886Z,15.72
2022-08-26T23:33:49.018Z,15.70
2022-08-26T23:36:18.151Z,15.71
2022-08-26T23:38:52.351Z,15.73
2022-08-26T23:41:22.516Z,15.73
2022-08-26T23:43:49.969Z,15.73
2022-08-26T23:46:17.759Z,15.70
2022-08-26T23:48:45.055Z,15.69
2022-08-26T23:51:27.816Z,15.66
2022-08-26T23:53:54.999Z,15.66
2022-08-26T23:56:21.870Z,15.68
2022-08-26T23:58:48.771Z,15.69
